sensor_id;sensor_type;location;lat;lon;timestamp;temperature;humidity
9564;DHT22;4820;50.870;4.702;2024-01-15T00:01:50;2.60;99.90
9564;DHT22;4820;50.870;4.702;2024-01-15T00:04:15;2.60;99.90
9564;DHT22;4820;50.870;4.702;2024-01-15T00:06:41;2.60;99.90
9564;DHT22;4820;50.870;4.702;2024-01-15T00:09:07;2.60;99.90
9564;DHT22;4820;50.870;4.702;2024-01-15T00:11:33;2.70;99.90
9564;DHT22;4820;50.870;4.702;2024-01-15T00:13:59;2.70;99.90
9564;DHT22;4820;50.870;4.702;2024-01-15T00:16:25;2.70;99.90
9564;DHT22;4820;50.870;4.702;2024-01-15T00:18:50;2.70;99.90
9564;DHT22;4820;50.870;4.702;2024-01-15T00:21:16;2.80;99.90
9564;DHT22;4820;50.870;4.702;2024-01-15T00:23:45;2.80;99.90
9564;DHT22;4820;50.870;4.702;2024-01-15T00:26:11;2.80;99.90
9564;DHT22;4820;50.870;4.702;2024-01-15T00:28:37;2.80;99.90
9564;DHT22;4820;50.870;4.702;2024-01-15T00:31:04;2.80;99.90
9564;DHT22;4820;50.870;4.702;2024-01-15T00:33:29;2.80;99.90
9564;DHT22;4820;50.870;4.702;2024-01-15T00:35:55;2.80;99.90
9564;DHT22;4820;50.870;4.702;2024-01-15T00:38:21;2.80;99.90
9564;DHT22;4820;50.870;4.702;2024-01-15T00:40:47;2.80;99.90
9564;DHT22;4820;50.870;4.702;2024-01-15T00:43:13;2.80;99.90
9564;DHT22;4820;50.870;4.702;2024-01-15T00:45:38;2.80;99.90
9564;DHT22;4820;50.870;4.702;2024-01-15T00:48:05;2.80;99.90
9564;DHT22;4820;50.870;4.702;2024-01-15T00:50:30;2.90;99.90
9564;DHT22;4820;50.870;4.702;2024-01-15T00:52:56;2.90;99.90
9564;DHT22;4820;50.870;4.702;2024-01-15T00:55:22;2.90;99.90
9564;DHT22;4820;50.870;4.702;2024-01-15T00:57:48;2.90;99.90
9564;DHT22;4820;50.870;4.702;2024-01-15T01:00:13;3.00;99.90
9564;DHT22;4820;50.870;4.702;2024-01-15T01:02:39;3.00;99.90
9564;DHT22;4820;50.870;4.702;2024-01-15T01:05:05;3.00;99.90
9564;DHT22;4820;50.870;4.702;2024-01-15T01:07:31;3.00;99.90
9564;DHT22;4820;50.870;4.702;2024-01-15T01:09:57;3.00;99.90
9564;DHT22;4820;50.870;4.702;2024-01-15T01:12:22;3.10;99.90
9564;DHT22;4820;50.870;4.702;2024-01-15T01:14:48;3.10;99.90
9564;DHT22;4820;50.870;4.702;2024-01-15T01:17:14;3.10;99.90
9564;DHT22;4820;50.870;4.702;2024-01-15T01:19:39;3.10;99.90
9564;DHT22;4820;50.870;4.702;2024-01-15T01:22:05;3.10;99.90
9564;DHT22;4820;50.870;4.702;2024-01-15T01:24:31;3.10;99.90
9564;DHT22;4820;50.870;4.702;2024-01-15T01:26:57;3.10;99.90
9564;DHT22;4820;50.870;4.702;2024-01-15T01:29:22;3.10;99.90
9564;DHT22;4820;50.870;4.702;2024-01-15T01:31:48;3.10;99.90
9564;DHT22;4820;50.870;4.702;2024-01-15T01:34:15;3.00;99.90
9564;DHT22;4820;50.870;4.702;2024-01-15T01:36:42;3.00;99.90
9564;DHT22;4820;50.870;4.702;2024-01-15T01:39:08;3.00;99.90
9564;DHT22;4820;50.870;4.702;2024-01-15T01:41:34;2.90;99.90
9564;DHT22;4820;50.870;4.702;2024-01-15T01:44:00;2.90;99.90
9564;DHT22;4820;50.870;4.702;2024-01-15T01:46:27;2.90;99.90
9564;DHT22;4820;50.870;4.702;2024-01-15T01:48:57;2.90;99.90
9564;DHT22;4820;50.870;4.702;2024-01-15T01:51:24;2.90;99.90
9564;DHT22;4820;50.870;4.702;2024-01-15T01:53:50;2.90;99.90
9564;DHT22;4820;50.870;4.702;2024-01-15T01:56:17;2.90;99.90
9564;DHT22;4820;50.870;4.702;2024-01-15T01:58:44;2.90;99.90
9564;DHT22;4820;50.870;4.702;2024-01-15T02:01:11;2.80;99.90
9564;DHT22;4820;50.870;4.702;2024-01-15T02:03:39;2.80;99.90
9564;DHT22;4820;50.870;4.702;2024-01-15T02:06:05;2.80;99.90
9564;DHT22;4820;50.870;4.702;2024-01-15T02:08:31;2.80;99.90
9564;DHT22;4820;50.870;4.702;2024-01-15T02:10:57;2.80;99.90
9564;DHT22;4820;50.870;4.702;2024-01-15T02:13:23;2.80;99.90
9564;DHT22;4820;50.870;4.702;2024-01-15T02:15:48;2.80;99.90
9564;DHT22;4820;50.870;4.702;2024-01-15T02:18:14;2.80;99.90
9564;DHT22;4820;50.870;4.702;2024-01-15T02:20:40;2.80;99.90
9564;DHT22;4820;50.870;4.702;2024-01-15T02:23:10;2.80;99.90
9564;DHT22;4820;50.870;4.702;2024-01-15T02:25:41;2.80;99.90
9564;DHT22;4820;50.870;4.702;2024-01-15T02:28:12;2.80;99.90
9564;DHT22;4820;50.870;4.702;2024-01-15T02:30:39;2.90;99.90
9564;DHT22;4820;50.870;4.702;2024-01-15T02:33:06;2.80;99.90
9564;DHT22;4820;50.870;4.702;2024-01-15T02:35:32;2.80;99.90
9564;DHT22;4820;50.870;4.702;2024-01-15T02:37:58;2.80;99.90
9564;DHT22;4820;50.870;4.702;2024-01-15T02:40:24;2.80;99.90
9564;DHT22;4820;50.870;4.702;2024-01-15T02:42:49;2.80;99.90
9564;DHT22;4820;50.870;4.702;2024-01-15T02:45:15;2.80;99.90
9564;DHT22;4820;50.870;4.702;2024-01-15T02:47:41;2.80;99.90
9564;DHT22;4820;50.870;4.702;2024-01-15T02:50:07;2.80;99.90
9564;DHT22;4820;50.870;4.702;2024-01-15T02:52:33;2.80;99.90
9564;DHT22;4820;50.870;4.702;2024-01-15T02:54:58;2.80;99.90
9564;DHT22;4820;50.870;4.702;2024-01-15T02:57:24;2.90;99.90
9564;DHT22;4820;50.870;4.702;2024-01-15T02:59:50;2.90;99.90
9564;DHT22;4820;50.870;4.702;2024-01-15T03:02:15;2.90;99.90
9564;DHT22;4820;50.870;4.702;2024-01-15T03:04:44;2.90;99.90
9564;DHT22;4820;50.870;4.702;2024-01-15T03:07:10;2.90;99.90
9564;DHT22;4820;50.870;4.702;2024-01-15T03:09:36;2.90;99.90
9564;DHT22;4820;50.870;4.702;2024-01-15T03:12:02;2.90;99.90
9564;DHT22;4820;50.870;4.702;2024-01-15T03:14:27;2.90;99.90
9564;DHT22;4820;50.870;4.702;2024-01-15T03:16:53;2.90;99.90
9564;DHT22;4820;50.870;4.702;2024-01-15T03:19:19;2.90;99.90
9564;DHT22;4820;50.870;4.702;2024-01-15T03:21:45;2.90;99.90
9564;DHT22;4820;50.870;4.702;2024-01-15T03:24:11;2.90;99.90
9564;DHT22;4820;50.870;4.702;2024-01-15T03:26:36;2.80;99.90
9564;DHT22;4820;50.870;4.702;2024-01-15T03:29:02;2.80;99.90
9564;DHT22;4820;50.870;4.702;2024-01-15T03:31:28;2.80;99.90
9564;DHT22;4820;50.870;4.702;2024-01-15T03:33:54;2.80;99.90
9564;DHT22;4820;50.870;4.702;2024-01-15T03:36:19;2.80;99.90
9564;DHT22;4820;50.870;4.702;2024-01-15T03:38:45;2.70;99.90
9564;DHT22;4820;50.870;4.702;2024-01-15T03:41:11;2.80;99.90
9564;DHT22;4820;50.870;4.702;2024-01-15T03:43:36;2.80;99.90
9564;DHT22;4820;50.870;4.702;2024-01-15T03:46:02;2.80;99.90
9564;DHT22;4820;50.870;4.702;2024-01-15T03:48:30;2.80;99.90
9564;DHT22;4820;50.870;4.702;2024-01-15T03:50:55;2.90;99.90
9564;DHT22;4820;50.870;4.702;2024-01-15T03:53:21;2.90;99.90
9564;DHT22;4820;50.870;4.702;2024-01-15T03:55:47;2.90;99.90
9564;DHT22;4820;50.870;4.702;2024-01-15T03:58:12;2.90;99.90
9564;DHT22;4820;50.870;4.702;2024-01-15T04:00:40;2.90;99.90
9564;DHT22;4820;50.870;4.702;2024-01-15T04:03:06;2.90;99.90
9564;DHT22;4820;50.870;4.702;2024-01-15T04:05:32;2.80;99.90
9564;DHT22;4820;50.870;4.702;2024-01-15T04:07:58;2.80;99.90
9564;DHT22;4820;50.870;4.702;2024-01-15T04:10:24;2.90;99.90
9564;DHT22;4820;50.870;4.702;2024-01-15T04:12:50;2.80;99.90
9564;DHT22;4820;50.870;4.702;2024-01-15T04:15:16;2.80;99.90
9564;DHT22;4820;50.870;4.702;2024-01-15T04:17:41;2.70;99.90
9564;DHT22;4820;50.870;4.702;2024-01-15T04:20:08;2.70;99.90
9564;DHT22;4820;50.870;4.702;2024-01-15T04:22:36;2.70;99.90
9564;DHT22;4820;50.870;4.702;2024-01-15T04:25:02;2.70;99.90
9564;DHT22;4820;50.870;4.702;2024-01-15T04:27:29;2.60;99.90
9564;DHT22;4820;50.870;4.702;2024-01-15T04:29:55;2.60;99.90
9564;DHT22;4820;50.870;4.702;2024-01-15T04:32:20;2.50;99.90
9564;DHT22;4820;50.870;4.702;2024-01-15T04:34:46;2.50;99.90
9564;DHT22;4820;50.870;4.702;2024-01-15T04:37:13;2.50;99.90
9564;DHT22;4820;50.870;4.702;2024-01-15T04:39:38;2.50;99.90
9564;DHT22;4820;50.870;4.702;2024-01-15T04:42:04;2.40;99.90
9564;DHT22;4820;50.870;4.702;2024-01-15T04:44:30;2.40;99.90
9564;DHT22;4820;50.870;4.702;2024-01-15T04:46:56;2.40;99.90
9564;DHT22;4820;50.870;4.702;2024-01-15T04:49:21;2.30;99.90
9564;DHT22;4820;50.870;4.702;2024-01-15T04:51:47;2.30;99.90
9564;DHT22;4820;50.870;4.702;2024-01-15T04:54:13;2.30;99.90
9564;DHT22;4820;50.870;4.702;2024-01-15T04:56:43;2.30;99.90
9564;DHT22;4820;50.870;4.702;2024-01-15T04:59:10;2.20;99.90
9564;DHT22;4820;50.870;4.702;2024-01-15T05:01:36;2.20;99.90
9564;DHT22;4820;50.870;4.702;2024-01-15T05:04:01;2.20;99.90
9564;DHT22;4820;50.870;4.702;2024-01-15T05:06:27;2.20;99.90
9564;DHT22;4820;50.870;4.702;2024-01-15T05:08:53;2.20;99.90
9564;DHT22;4820;50.870;4.702;2024-01-15T05:11:19;2.30;99.90
9564;DHT22;4820;50.870;4.702;2024-01-15T05:13:44;2.30;99.90
9564;DHT22;4820;50.870;4.702;2024-01-15T05:16:10;2.40;99.90
9564;DHT22;4820;50.870;4.702;2024-01-15T05:18:36;2.40;99.90
9564;DHT22;4820;50.870;4.702;2024-01-15T05:21:03;2.50;99.90
9564;DHT22;4820;50.870;4.702;2024-01-15T05:23:31;2.40;99.90
9564;DHT22;4820;50.870;4.702;2024-01-15T05:25:56;2.50;99.90
9564;DHT22;4820;50.870;4.702;2024-01-15T05:28:22;2.50;99.90
9564;DHT22;4820;50.870;4.702;2024-01-15T05:30:48;2.50;99.90
9564;DHT22;4820;50.870;4.702;2024-01-15T05:33:16;2.40;99.90
9564;DHT22;4820;50.870;4.702;2024-01-15T05:35:42;2.50;99.90
9564;DHT22;4820;50.870;4.702;2024-01-15T05:38:07;2.50;99.90
9564;DHT22;4820;50.870;4.702;2024-01-15T05:40:33;2.50;99.90
9564;DHT22;4820;50.870;4.702;2024-01-15T05:42:59;2.50;99.90
9564;DHT22;4820;50.870;4.702;2024-01-15T05:45:26;2.40;99.90
9564;DHT22;4820;50.870;4.702;2024-01-15T05:47:52;2.40;99.90
9564;DHT22;4820;50.870;4.702;2024-01-15T05:50:18;2.40;99.90
9564;DHT22;4820;50.870;4.702;2024-01-15T05:52:44;2.30;99.90
9564;DHT22;4820;50.870;4.702;2024-01-15T05:55:09;2.30;99.90
9564;DHT22;4820;50.870;4.702;2024-01-15T05:57:36;2.20;99.90
9564;DHT22;4820;50.870;4.702;2024-01-15T06:00:02;2.20;99.90
9564;DHT22;4820;50.870;4.702;2024-01-15T06:02:28;2.20;99.90
9564;DHT22;4820;50.870;4.702;2024-01-15T06:04:54;2.10;99.90
9564;DHT22;4820;50.870;4.702;2024-01-15T06:07:19;2.10;99.90
9564;DHT22;4820;50.870;4.702;2024-01-15T06:09:45;2.10;99.90
9564;DHT22;4820;50.870;4.702;2024-01-15T06:12:11;2.10;99.90
9564;DHT22;4820;50.870;4.702;2024-01-15T06:14:36;2.00;99.90
9564;DHT22;4820;50.870;4.702;2024-01-15T06:17:02;2.00;99.90
9564;DHT22;4820;50.870;4.702;2024-01-15T06:19:28;2.10;99.90
9564;DHT22;4820;50.870;4.702;2024-01-15T06:21:54;2.00;99.90
9564;DHT22;4820;50.870;4.702;2024-01-15T06:24:19;2.00;99.90
9564;DHT22;4820;50.870;4.702;2024-01-15T06:26:46;2.00;99.90
9564;DHT22;4820;50.870;4.702;2024-01-15T06:29:12;2.00;99.90
9564;DHT22;4820;50.870;4.702;2024-01-15T06:31:38;2.00;99.90
9564;DHT22;4820;50.870;4.702;2024-01-15T06:34:04;2.00;99.90
9564;DHT22;4820;50.870;4.702;2024-01-15T06:36:30;2.00;99.90
9564;DHT22;4820;50.870;4.702;2024-01-15T06:38:55;2.00;99.90
9564;DHT22;4820;50.870;4.702;2024-01-15T06:41:21;1.90;99.90
9564;DHT22;4820;50.870;4.702;2024-01-15T06:43:48;1.90;99.90
9564;DHT22;4820;50.870;4.702;2024-01-15T06:46:22;1.90;99.90
9564;DHT22;4820;50.870;4.702;2024-01-15T06:48:49;1.90;99.90
9564;DHT22;4820;50.870;4.702;2024-01-15T06:51:16;1.90;99.90
9564;DHT22;4820;50.870;4.702;2024-01-15T06:53:41;1.90;99.90
9564;DHT22;4820;50.870;4.702;2024-01-15T06:56:08;1.90;99.90
9564;DHT22;4820;50.870;4.702;2024-01-15T06:58:34;1.90;99.90
9564;DHT22;4820;50.870;4.702;2024-01-15T07:01:00;2.00;99.90
9564;DHT22;4820;50.870;4.702;2024-01-15T07:03:26;2.00;99.90
9564;DHT22;4820;50.870;4.702;2024-01-15T07:05:51;2.00;99.90
9564;DHT22;4820;50.870;4.702;2024-01-15T07:08:17;2.00;99.90
9564;DHT22;4820;50.870;4.702;2024-01-15T07:10:42;2.00;99.90
9564;DHT22;4820;50.870;4.702;2024-01-15T07:13:09;2.00;99.90
9564;DHT22;4820;50.870;4.702;2024-01-15T07:15:34;2.00;99.90
9564;DHT22;4820;50.870;4.702;2024-01-15T07:18:00;2.00;99.90
9564;DHT22;4820;50.870;4.702;2024-01-15T07:20:26;2.00;99.90
9564;DHT22;4820;50.870;4.702;2024-01-15T07:22:51;2.00;99.90
9564;DHT22;4820;50.870;4.702;2024-01-15T07:25:17;1.90;99.90
9564;DHT22;4820;50.870;4.702;2024-01-15T07:27:42;1.90;99.90
9564;DHT22;4820;50.870;4.702;2024-01-15T07:30:11;1.90;99.90
9564;DHT22;4820;50.870;4.702;2024-01-15T07:32:37;1.90;99.90
9564;DHT22;4820;50.870;4.702;2024-01-15T07:35:03;1.90;99.90
9564;DHT22;4820;50.870;4.702;2024-01-15T07:37:29;1.90;99.90
9564;DHT22;4820;50.870;4.702;2024-01-15T07:39:55;1.90;99.90
9564;DHT22;4820;50.870;4.702;2024-01-15T07:42:21;2.00;99.90
9564;DHT22;4820;50.870;4.702;2024-01-15T07:44:46;1.90;99.90
9564;DHT22;4820;50.870;4.702;2024-01-15T07:47:12;1.90;99.90
9564;DHT22;4820;50.870;4.702;2024-01-15T07:49:38;2.00;99.90
9564;DHT22;4820;50.870;4.702;2024-01-15T07:52:04;2.00;99.90
9564;DHT22;4820;50.870;4.702;2024-01-15T07:54:32;2.10;99.90
9564;DHT22;4820;50.870;4.702;2024-01-15T07:57:02;2.10;99.90
9564;DHT22;4820;50.870;4.702;2024-01-15T07:59:28;2.10;99.90
9564;DHT22;4820;50.870;4.702;2024-01-15T08:01:54;2.10;99.90
9564;DHT22;4820;50.870;4.702;2024-01-15T08:04:20;2.10;99.90
9564;DHT22;4820;50.870;4.702;2024-01-15T08:06:47;2.10;99.90
9564;DHT22;4820;50.870;4.702;2024-01-15T08:09:13;2.10;99.90
9564;DHT22;4820;50.870;4.702;2024-01-15T08:11:40;2.10;99.90
9564;DHT22;4820;50.870;4.702;2024-01-15T08:14:10;2.20;99.90
9564;DHT22;4820;50.870;4.702;2024-01-15T08:16:37;2.20;99.90
9564;DHT22;4820;50.870;4.702;2024-01-15T08:19:03;2.20;99.90
9564;DHT22;4820;50.870;4.702;2024-01-15T08:21:28;2.30;99.90
9564;DHT22;4820;50.870;4.702;2024-01-15T08:23:56;2.30;99.90
9564;DHT22;4820;50.870;4.702;2024-01-15T08:26:22;2.30;99.90
9564;DHT22;4820;50.870;4.702;2024-01-15T08:28:48;2.40;99.90
9564;DHT22;4820;50.870;4.702;2024-01-15T08:31:13;2.40;99.90
9564;DHT22;4820;50.870;4.702;2024-01-15T08:33:39;2.40;99.90
9564;DHT22;4820;50.870;4.702;2024-01-15T08:36:05;2.40;99.90
9564;DHT22;4820;50.870;4.702;2024-01-15T08:38:33;2.40;99.90
9564;DHT22;4820;50.870;4.702;2024-01-15T08:40:59;2.40;99.90
9564;DHT22;4820;50.870;4.702;2024-01-15T08:43:26;2.50;99.90
9564;DHT22;4820;50.870;4.702;2024-01-15T08:45:52;2.50;99.90
9564;DHT22;4820;50.870;4.702;2024-01-15T08:48:18;2.50;99.90
9564;DHT22;4820;50.870;4.702;2024-01-15T08:50:44;2.50;99.90
9564;DHT22;4820;50.870;4.702;2024-01-15T08:53:13;2.50;99.90
9564;DHT22;4820;50.870;4.702;2024-01-15T08:55:39;2.60;99.90
9564;DHT22;4820;50.870;4.702;2024-01-15T08:58:04;2.60;99.90
9564;DHT22;4820;50.870;4.702;2024-01-15T09:00:31;2.70;99.90
9564;DHT22;4820;50.870;4.702;2024-01-15T09:02:57;2.70;99.90
9564;DHT22;4820;50.870;4.702;2024-01-15T09:05:23;2.80;99.90
9564;DHT22;4820;50.870;4.702;2024-01-15T09:07:48;2.80;99.90
9564;DHT22;4820;50.870;4.702;2024-01-15T09:10:14;2.80;99.90
9564;DHT22;4820;50.870;4.702;2024-01-15T09:12:40;2.80;99.90
9564;DHT22;4820;50.870;4.702;2024-01-15T09:15:06;2.90;99.90
9564;DHT22;4820;50.870;4.702;2024-01-15T09:17:32;2.90;99.90
9564;DHT22;4820;50.870;4.702;2024-01-15T09:19:58;3.00;99.90
9564;DHT22;4820;50.870;4.702;2024-01-15T09:22:23;3.00;99.90
9564;DHT22;4820;50.870;4.702;2024-01-15T09:24:49;3.00;99.90
9564;DHT22;4820;50.870;4.702;2024-01-15T09:27:15;3.00;99.90
9564;DHT22;4820;50.870;4.702;2024-01-15T09:29:41;3.00;99.90
9564;DHT22;4820;50.870;4.702;2024-01-15T09:32:08;3.00;99.90
9564;DHT22;4820;50.870;4.702;2024-01-15T09:34:34;2.90;99.90
9564;DHT22;4820;50.870;4.702;2024-01-15T09:37:00;2.90;99.90
9564;DHT22;4820;50.870;4.702;2024-01-15T09:39:27;2.80;99.90
9564;DHT22;4820;50.870;4.702;2024-01-15T09:41:54;2.80;99.90
9564;DHT22;4820;50.870;4.702;2024-01-15T09:44:20;2.90;99.90
9564;DHT22;4820;50.870;4.702;2024-01-15T09:46:47;2.80;99.90
9564;DHT22;4820;50.870;4.702;2024-01-15T09:49:16;2.80;99.90
9564;DHT22;4820;50.870;4.702;2024-01-15T09:51:42;2.80;99.90
9564;DHT22;4820;50.870;4.702;2024-01-15T09:54:08;2.80;99.90
9564;DHT22;4820;50.870;4.702;2024-01-15T09:56:34;2.80;99.90
9564;DHT22;4820;50.870;4.702;2024-01-15T09:59:01;2.80;99.90
9564;DHT22;4820;50.870;4.702;2024-01-15T10:01:26;2.90;99.90
9564;DHT22;4820;50.870;4.702;2024-01-15T10:03:54;2.90;99.90
9564;DHT22;4820;50.870;4.702;2024-01-15T10:06:21;3.00;99.90
9564;DHT22;4820;50.870;4.702;2024-01-15T10:08:48;3.00;99.90
9564;DHT22;4820;50.870;4.702;2024-01-15T10:11:15;3.10;99.90
9564;DHT22;4820;50.870;4.702;2024-01-15T10:13:43;3.10;99.90
9564;DHT22;4820;50.870;4.702;2024-01-15T10:16:09;3.20;99.90
9564;DHT22;4820;50.870;4.702;2024-01-15T10:18:34;3.20;99.90
9564;DHT22;4820;50.870;4.702;2024-01-15T10:21:03;3.30;99.90
9564;DHT22;4820;50.870;4.702;2024-01-15T10:23:31;3.30;99.90
9564;DHT22;4820;50.870;4.702;2024-01-15T10:25:57;3.30;99.90
9564;DHT22;4820;50.870;4.702;2024-01-15T10:28:26;3.40;99.90
9564;DHT22;4820;50.870;4.702;2024-01-15T10:30:59;3.40;99.90
9564;DHT22;4820;50.870;4.702;2024-01-15T10:33:25;3.40;99.90
9564;DHT22;4820;50.870;4.702;2024-01-15T10:35:54;3.50;99.90
9564;DHT22;4820;50.870;4.702;2024-01-15T10:38:21;3.50;99.90
9564;DHT22;4820;50.870;4.702;2024-01-15T10:40:50;3.50;99.90
9564;DHT22;4820;50.870;4.702;2024-01-15T10:43:17;3.60;99.90
9564;DHT22;4820;50.870;4.702;2024-01-15T10:45:50;3.60;99.90
9564;DHT22;4820;50.870;4.702;2024-01-15T10:48:17;3.70;99.90
9564;DHT22;4820;50.870;4.702;2024-01-15T10:50:44;3.70;99.90
9564;DHT22;4820;50.870;4.702;2024-01-15T10:53:11;3.70;99.90
9564;DHT22;4820;50.870;4.702;2024-01-15T10:55:38;3.70;99.90
9564;DHT22;4820;50.870;4.702;2024-01-15T10:58:05;3.80;99.90
9564;DHT22;4820;50.870;4.702;2024-01-15T11:00:37;3.80;99.90
9564;DHT22;4820;50.870;4.702;2024-01-15T11:03:05;3.90;99.90
9564;DHT22;4820;50.870;4.702;2024-01-15T11:05:38;3.90;99.90
9564;DHT22;4820;50.870;4.702;2024-01-15T11:08:07;4.00;99.90
9564;DHT22;4820;50.870;4.702;2024-01-15T11:10:46;4.00;99.90
9564;DHT22;4820;50.870;4.702;2024-01-15T11:15:58;4.20;99.90
9564;DHT22;4820;50.870;4.702;2024-01-15T11:18:27;4.20;99.90
9564;DHT22;4820;50.870;4.702;2024-01-15T11:21:23;4.30;99.90
9564;DHT22;4820;50.870;4.702;2024-01-15T11:23:54;4.30;99.90
9564;DHT22;4820;50.870;4.702;2024-01-15T11:26:44;4.40;99.90
9564;DHT22;4820;50.870;4.702;2024-01-15T11:32:00;4.40;99.90
9564;DHT22;4820;50.870;4.702;2024-01-15T11:35:00;4.40;99.90
9564;DHT22;4820;50.870;4.702;2024-01-15T11:37:29;4.30;99.90
9564;DHT22;4820;50.870;4.702;2024-01-15T11:40:01;4.30;99.90
9564;DHT22;4820;50.870;4.702;2024-01-15T11:42:29;4.30;99.90
9564;DHT22;4820;50.870;4.702;2024-01-15T11:44:55;4.30;99.90
9564;DHT22;4820;50.870;4.702;2024-01-15T11:50:24;4.30;99.90
9564;DHT22;4820;50.870;4.702;2024-01-15T11:53:01;4.30;99.90
9564;DHT22;4820;50.870;4.702;2024-01-15T11:55:30;4.30;99.90
9564;DHT22;4820;50.870;4.702;2024-01-15T11:58:01;4.30;99.90
9564;DHT22;4820;50.870;4.702;2024-01-15T12:00:27;4.30;99.90
9564;DHT22;4820;50.870;4.702;2024-01-15T12:02:53;4.30;99.90
9564;DHT22;4820;50.870;4.702;2024-01-15T12:05:20;4.20;99.90
9564;DHT22;4820;50.870;4.702;2024-01-15T12:07:47;4.20;99.90
9564;DHT22;4820;50.870;4.702;2024-01-15T12:15:09;4.20;99.90
9564;DHT22;4820;50.870;4.702;2024-01-15T12:17:35;4.30;99.90
9564;DHT22;4820;50.870;4.702;2024-01-15T12:20:04;4.40;99.90
9564;DHT22;4820;50.870;4.702;2024-01-15T12:22:30;4.50;99.90
9564;DHT22;4820;50.870;4.702;2024-01-15T12:24:55;4.50;99.90
9564;DHT22;4820;50.870;4.702;2024-01-15T12:27:21;4.50;99.90
9564;DHT22;4820;50.870;4.702;2024-01-15T12:29:47;4.60;99.90
9564;DHT22;4820;50.870;4.702;2024-01-15T12:32:13;4.60;99.90
9564;DHT22;4820;50.870;4.702;2024-01-15T12:34:38;4.70;99.90
9564;DHT22;4820;50.870;4.702;2024-01-15T12:37:04;4.70;99.90
9564;DHT22;4820;50.870;4.702;2024-01-15T12:39:30;4.80;99.90
9564;DHT22;4820;50.870;4.702;2024-01-15T12:41:57;4.80;99.90
9564;DHT22;4820;50.870;4.702;2024-01-15T12:44:23;4.80;99.90
9564;DHT22;4820;50.870;4.702;2024-01-15T12:46:49;4.90;99.90
9564;DHT22;4820;50.870;4.702;2024-01-15T12:49:15;4.90;99.90
9564;DHT22;4820;50.870;4.702;2024-01-15T12:51:40;4.90;99.90
9564;DHT22;4820;50.870;4.702;2024-01-15T12:54:06;4.80;99.90
9564;DHT22;4820;50.870;4.702;2024-01-15T12:56:32;4.90;99.90
9564;DHT22;4820;50.870;4.702;2024-01-15T12:58:57;4.90;99.90
9564;DHT22;4820;50.870;4.702;2024-01-15T13:01:23;4.90;99.90
9564;DHT22;4820;50.870;4.702;2024-01-15T13:03:48;4.70;99.90
9564;DHT22;4820;50.870;4.702;2024-01-15T13:06:14;4.50;99.90
9564;DHT22;4820;50.870;4.702;2024-01-15T13:08:40;4.30;99.90
9564;DHT22;4820;50.870;4.702;2024-01-15T13:11:05;4.30;99.90
9564;DHT22;4820;50.870;4.702;2024-01-15T13:13:31;4.20;99.90
9564;DHT22;4820;50.870;4.702;2024-01-15T13:16:00;4.10;99.90
9564;DHT22;4820;50.870;4.702;2024-01-15T13:18:25;4.10;99.90
9564;DHT22;4820;50.870;4.702;2024-01-15T13:20:51;4.10;99.90
9564;DHT22;4820;50.870;4.702;2024-01-15T13:23:17;3.90;99.90
9564;DHT22;4820;50.870;4.702;2024-01-15T13:25:43;3.70;99.90
9564;DHT22;4820;50.870;4.702;2024-01-15T13:28:08;3.50;99.90
9564;DHT22;4820;50.870;4.702;2024-01-15T13:30:34;3.30;99.90
9564;DHT22;4820;50.870;4.702;2024-01-15T13:33:00;3.10;99.90
9564;DHT22;4820;50.870;4.702;2024-01-15T13:35:30;2.80;99.90
9564;DHT22;4820;50.870;4.702;2024-01-15T13:37:55;2.60;99.90
9564;DHT22;4820;50.870;4.702;2024-01-15T13:40:21;2.60;99.90
9564;DHT22;4820;50.870;4.702;2024-01-15T13:42:47;2.50;99.90
9564;DHT22;4820;50.870;4.702;2024-01-15T13:45:14;2.50;99.90
9564;DHT22;4820;50.870;4.702;2024-01-15T13:47:40;2.50;99.90
9564;DHT22;4820;50.870;4.702;2024-01-15T13:50:07;2.60;99.90
9564;DHT22;4820;50.870;4.702;2024-01-15T13:52:34;2.60;99.90
9564;DHT22;4820;50.870;4.702;2024-01-15T13:55:00;2.60;99.90
9564;DHT22;4820;50.870;4.702;2024-01-15T13:57:25;2.50;99.90
9564;DHT22;4820;50.870;4.702;2024-01-15T13:59:51;2.40;99.90
9564;DHT22;4820;50.870;4.702;2024-01-15T14:02:17;2.40;99.90
9564;DHT22;4820;50.870;4.702;2024-01-15T14:04:42;2.40;99.90
9564;DHT22;4820;50.870;4.702;2024-01-15T14:07:08;2.40;99.90
9564;DHT22;4820;50.870;4.702;2024-01-15T14:09:34;2.30;99.90
9564;DHT22;4820;50.870;4.702;2024-01-15T14:12:00;2.30;99.90
9564;DHT22;4820;50.870;4.702;2024-01-15T14:14:25;2.20;99.90
9564;DHT22;4820;50.870;4.702;2024-01-15T14:16:51;2.20;99.90
9564;DHT22;4820;50.870;4.702;2024-01-15T14:19:17;2.20;99.90
9564;DHT22;4820;50.870;4.702;2024-01-15T14:21:43;2.30;99.90
9564;DHT22;4820;50.870;4.702;2024-01-15T14:24:09;2.40;99.90
9564;DHT22;4820;50.870;4.702;2024-01-15T14:26:34;2.50;99.90
9564;DHT22;4820;50.870;4.702;2024-01-15T14:29:00;2.70;99.90
9564;DHT22;4820;50.870;4.702;2024-01-15T14:31:26;3.00;99.90
9564;DHT22;4820;50.870;4.702;2024-01-15T14:33:53;3.20;99.90
9564;DHT22;4820;50.870;4.702;2024-01-15T14:36:20;3.30;99.90
9564;DHT22;4820;50.870;4.702;2024-01-15T14:38:46;3.20;99.90
9564;DHT22;4820;50.870;4.702;2024-01-15T14:41:12;3.10;99.90
9564;DHT22;4820;50.870;4.702;2024-01-15T14:43:38;3.00;99.90
9564;DHT22;4820;50.870;4.702;2024-01-15T14:46:04;2.90;99.90
9564;DHT22;4820;50.870;4.702;2024-01-15T14:48:31;2.90;99.90
9564;DHT22;4820;50.870;4.702;2024-01-15T14:50:56;2.80;99.90
9564;DHT22;4820;50.870;4.702;2024-01-15T14:53:22;2.70;99.90
9564;DHT22;4820;50.870;4.702;2024-01-15T14:55:48;2.70;99.90
9564;DHT22;4820;50.870;4.702;2024-01-15T14:58:13;2.70;99.90
9564;DHT22;4820;50.870;4.702;2024-01-15T15:00:39;2.60;99.90
9564;DHT22;4820;50.870;4.702;2024-01-15T15:03:04;2.60;99.90
9564;DHT22;4820;50.870;4.702;2024-01-15T15:05:30;2.50;99.90
9564;DHT22;4820;50.870;4.702;2024-01-15T15:07:56;2.50;99.90
9564;DHT22;4820;50.870;4.702;2024-01-15T15:10:21;2.50;99.90
9564;DHT22;4820;50.870;4.702;2024-01-15T15:12:47;2.50;99.90
9564;DHT22;4820;50.870;4.702;2024-01-15T15:15:13;2.50;99.90
9564;DHT22;4820;50.870;4.702;2024-01-15T15:17:39;2.40;99.90
9564;DHT22;4820;50.870;4.702;2024-01-15T15:20:06;2.40;99.90
9564;DHT22;4820;50.870;4.702;2024-01-15T15:22:33;2.40;99.90
9564;DHT22;4820;50.870;4.702;2024-01-15T15:24:59;2.40;99.90
9564;DHT22;4820;50.870;4.702;2024-01-15T15:27:25;2.40;99.90
9564;DHT22;4820;50.870;4.702;2024-01-15T15:29:53;2.40;99.90
9564;DHT22;4820;50.870;4.702;2024-01-15T15:32:19;2.30;99.90
9564;DHT22;4820;50.870;4.702;2024-01-15T15:34:45;2.20;99.90
9564;DHT22;4820;50.870;4.702;2024-01-15T15:37:11;2.20;99.90
9564;DHT22;4820;50.870;4.702;2024-01-15T15:39:37;2.20;99.90
9564;DHT22;4820;50.870;4.702;2024-01-15T15:42:03;2.20;99.90
9564;DHT22;4820;50.870;4.702;2024-01-15T15:44:29;2.30;99.90
9564;DHT22;4820;50.870;4.702;2024-01-15T15:46:54;2.30;99.90
9564;DHT22;4820;50.870;4.702;2024-01-15T15:49:20;2.30;99.90
9564;DHT22;4820;50.870;4.702;2024-01-15T15:51:46;2.40;99.90
9564;DHT22;4820;50.870;4.702;2024-01-15T15:54:11;2.40;99.90
9564;DHT22;4820;50.870;4.702;2024-01-15T15:56:37;2.40;99.90
9564;DHT22;4820;50.870;4.702;2024-01-15T15:59:07;2.50;99.90
9564;DHT22;4820;50.870;4.702;2024-01-15T16:01:35;2.50;99.90
9564;DHT22;4820;50.870;4.702;2024-01-15T16:04:00;2.60;99.90
9564;DHT22;4820;50.870;4.702;2024-01-15T16:06:26;2.60;99.90
9564;DHT22;4820;50.870;4.702;2024-01-15T16:08:52;2.50;99.90
9564;DHT22;4820;50.870;4.702;2024-01-15T16:11:18;2.40;99.90
9564;DHT22;4820;50.870;4.702;2024-01-15T16:13:44;2.40;99.90
9564;DHT22;4820;50.870;4.702;2024-01-15T16:16:09;2.40;99.90
9564;DHT22;4820;50.870;4.702;2024-01-15T16:18:35;2.40;99.90
9564;DHT22;4820;50.870;4.702;2024-01-15T16:21:02;2.40;99.90
9564;DHT22;4820;50.870;4.702;2024-01-15T16:23:27;2.40;99.90
9564;DHT22;4820;50.870;4.702;2024-01-15T16:25:53;2.40;99.90